Eagleville, New York
Current Conditions -  °F | °C
As of 5:54 PM on Thursday 18 Dec 2014 (Local Time) from KDDH Reporting Station
Overcast Overcast  
Wind Chill: 25°   Ceiling: 1600
Heat Index: 32°   Visibility: 10mi
Dew Point: 26°   Wind: 8mph
Humidity: 79%   Direction: 270°W
Pressure: 29.89"   Gusts: NA
Location:  43.1288°N, 73.306°W
Report Text: KDDH 182254Z AUTO 27007KT 230V300 10SM BKN016 OVC024 00/M03 A2989 RMK AO2 SLP132 T00001033
Loading
Personal Weather Stations






























Interactive Weather Map New forecast layout! Learn more

10-Day Weather Forecast

Advertisements
Track Severe Weather on mobile